Sneaker — V7OI5 — position and weather

sailwx.info

Track history (hours):
 
Tides and Currents Weather Stations Pressure Air Temp Water Temp Dewpoint Dewpoint Depression Visibility Wind Speed Wind Dir Waves Ship Positions

Sneaker

Last reported at 2017-Oct-17 16:55 UTC. Time now 2017-Oct-17 17:06 UTC.
Position N 01°17' E 103°56'.

Length 22 m; draft 2 m.

Type: Pleasure craft. MMSI: 338149728.

Date/timePositionNaut miles runAvg speedWind from/ knotsBaromVisibWave heightAir tempDewpointWater temp
2017-Oct-17 16:55N 01°17' E 103°56'0 0.0
2017-Oct-17 16:24N 01°17' E 103°56'108208266.3
2017-Oct-17 15:06N 26°43' W 080°03'1082050130.3
2017-Oct-17 14:53N 01°17' E 103°56'1082079169.1
2017-Oct-17 14:44N 26°43' W 080°03'0 0.0
2017-Oct-17 14:29N 26°43' W 080°03'10820499374.5
2017-Oct-17 14:28N 01°17' E 103°56'0 0.4
2017-Oct-17 14:00N 01°17' E 103°56'10820649175.4
2017-Oct-17 13:59N 26°43' W 080°03'1082021651.6
2017-Oct-17 13:29N 01°17' E 103°56'108209737791.3
2017-Oct-17 13:29N 26°43' W 080°03'1082020318.6
2017-Oct-17 12:57N 01°17' E 103°56'0 0.1
2017-Oct-17 12:24N 01°17' E 103°56'  
2017-Oct-12 19:45N 26°33' W 080°03'2 5.7
2017-Oct-12 19:26N 26°31' W 080°03'4 5.9
2017-Oct-12 18:48N 26°28' W 080°04'2 4.2
2017-Oct-12 18:25N 26°26' W 080°04'3 5.7
2017-Oct-12 17:52N 26°23' W 080°04'2 5.3
2017-Oct-12 17:28N 26°21' W 080°05'2 5.1
2017-Oct-12 17:00N 26°19' W 080°05'2 4.9
2017-Oct-12 16:30N 26°16' W 080°05'3 4.3
2017-Oct-12 15:55N 26°14' W 080°06'2 6.1
2017-Oct-12 15:30N 26°11' W 080°06'3 6.4
2017-Oct-12 15:00N 26°08' W 080°07'1 2.8
2017-Oct-12 14:30N 26°07' W 080°07'3 6.5
2017-Oct-12 14:00N 26°05' W 080°04'612.4
2017-Oct-12 13:30N 25°59' W 080°04'611.9
2017-Oct-12 13:00N 25°53' W 080°04'919.0
2017-Oct-12 12:30N 25°44' W 080°05'815.1
2017-Oct-12 12:00N 25°39' W 080°12'4 8.4
2017-Oct-12 11:31N 25°39' W 080°16'0 0.1
2017-Oct-12 11:00N 25°39' W 080°16'0 0.0
2017-Oct-12 10:24N 25°39' W 080°16'0 0.0
2017-Oct-12 09:51N 25°39' W 080°16'0 0.0
2017-Oct-12 09:18N 25°39' W 080°16'0 0.0
2017-Oct-12 08:54N 25°39' W 080°16'0 0.0
2017-Oct-12 08:30N 25°39' W 080°16'0 0.0
2017-Oct-12 07:57N 25°39' W 080°16'0 0.0
2017-Oct-12 07:27N 25°39' W 080°16'0 0.0
2017-Oct-12 07:00N 25°39' W 080°16'0 0.0
2017-Oct-12 06:27N 25°39' W 080°16'0 0.0
2017-Oct-12 05:57N 25°39' W 080°16'0 0.0
2017-Oct-12 05:27N 25°39' W 080°16'0 0.0
2017-Oct-12 05:00N 25°39' W 080°16'0 0.0
2017-Oct-12 04:30N 25°39' W 080°16'0 0.0
2017-Oct-12 04:00N 25°39' W 080°16'0 0.0
2017-Oct-12 03:30N 25°39' W 080°16'0 0.0
2017-Oct-12 03:00N 25°39' W 080°16'0 0.0
2017-Oct-12 02:30N 25°39' W 080°16'0 0.0
2017-Oct-12 01:57N 25°39' W 080°16'0 0.0
2017-Oct-12 01:30N 25°39' W 080°16'0 0.0
2017-Oct-12 01:00N 25°39' W 080°16'0 0.0
2017-Oct-12 00:30N 25°39' W 080°16'0 0.0
2017-Oct-12 00:00N 25°39' W 080°16'0 0.0
2017-Oct-11 23:30N 25°39' W 080°16'0 0.0
2017-Oct-11 22:57N 25°39' W 080°16'0 0.0
2017-Oct-11 22:30N 25°39' W 080°16'0 0.0
2017-Oct-11 22:00N 25°39' W 080°16'0 0.0
2017-Oct-11 21:30N 25°39' W 080°16'0 0.0
2017-Oct-11 21:00N 25°39' W 080°16'0 0.0
2017-Oct-11 20:30N 25°39' W 080°16'0 0.0
2017-Oct-11 19:57N 25°39' W 080°16'0 0.0
2017-Oct-11 19:30N 25°39' W 080°16'0 0.0
2017-Oct-11 18:57N 25°39' W 080°16'0 0.0
2017-Oct-11 18:30N 25°39' W 080°16'0 0.0
2017-Oct-11 17:57N 25°39' W 080°16'0 0.0
2017-Oct-11 17:27N 25°39' W 080°16'0 0.0
2017-Oct-11 17:00N 25°39' W 080°16'0 0.0
2017-Oct-11 00:00N 25°39' W 080°16'0 0.0
2017-Oct-10 23:30N 25°39' W 080°16'0 0.0
2017-Oct-10 22:57N 25°39' W 080°16'0 0.0
2017-Oct-10 22:27N 25°39' W 080°16'0 0.0
2017-Oct-10 22:00N 25°39' W 080°16'0 0.0
2017-Oct-10 21:30N 25°39' W 080°16'0 0.0
2017-Oct-10 21:00N 25°39' W 080°16'0 0.0
2017-Oct-10 20:27N 25°39' W 080°16'0 0.0
2017-Oct-10 20:00N 25°39' W 080°16'0 0.0
2017-Oct-10 19:30N 25°39' W 080°16'0 0.0
2017-Oct-10 19:00N 25°39' W 080°16'0 0.0
2017-Oct-10 18:30N 25°39' W 080°16'0 0.0
2017-Oct-10 18:00N 25°39' W 080°16'0 0.0
2017-Oct-10 17:30N 25°39' W 080°16'0 0.0
2017-Oct-10 17:00N 25°39' W 080°16'0 0.0
2017-Oct-10 16:30N 25°39' W 080°16'0 0.0
2017-Oct-10 16:00N 25°39' W 080°16'0 0.0
2017-Oct-10 15:30N 25°39' W 080°16'0 0.0
2017-Oct-10 15:00N 25°39' W 080°16'0 0.0
2017-Oct-10 14:00N 25°39' W 080°16'0 0.0
2017-Oct-10 13:24N 25°39' W 080°16'0 0.0
2017-Oct-10 13:00N 25°39' W 080°16'0 0.0
2017-Oct-10 12:30N 25°39' W 080°16'0 0.0
2017-Oct-10 11:57N 25°39' W 080°16'0 0.0
2017-Oct-10 11:30N 25°39' W 080°16'0 0.0
2017-Oct-10 11:00N 25°39' W 080°16'0 0.0
2017-Oct-10 10:27N 25°39' W 080°16'0 0.0
2017-Oct-10 09:57N 25°39' W 080°16'0 0.0
2017-Oct-10 09:30N 25°39' W 080°16'0 0.0
2017-Oct-10 09:00N 25°39' W 080°16'0 0.0
2017-Oct-10 08:30N 25°39' W 080°16'0 0.0
2017-Oct-10 07:54N 25°39' W 080°16'0 0.0
2017-Oct-10 07:30N 25°39' W 080°16'0 0.0
2017-Oct-10 07:00N 25°39' W 080°16'0 0.0
2017-Oct-10 06:30N 25°39' W 080°16'0 0.0
2017-Oct-10 06:00N 25°39' W 080°16'0 0.0
2017-Oct-10 05:24N 25°39' W 080°16'0 0.0
2017-Oct-10 05:00N 25°39' W 080°16'0 0.0
2017-Oct-10 04:30N 25°39' W 080°16'0 0.0
2017-Oct-10 03:57N 25°39' W 080°16'0 0.0
2017-Oct-10 03:24N 25°39' W 080°16'0 0.0
2017-Oct-10 03:00N 25°39' W 080°16'0 0.0
2017-Oct-10 02:30N 25°39' W 080°16'0 0.0
2017-Oct-10 02:00N 25°39' W 080°16'0 0.0
2017-Oct-10 01:30N 25°39' W 080°16'0 0.0
2017-Oct-10 01:00N 25°39' W 080°16'0 0.0
2017-Oct-10 00:30N 25°39' W 080°16'0 0.0
2017-Oct-09 23:57N 25°39' W 080°16'0 0.0
2017-Oct-09 23:27N 25°39' W 080°16'0 0.0
2017-Oct-09 23:00N 25°39' W 080°16'0 0.0
2017-Oct-09 22:24N 25°39' W 080°16'0 0.0
2017-Oct-09 22:00N 25°39' W 080°16'0 0.0
2017-Oct-09 21:30N 25°39' W 080°16'0 0.0
2017-Oct-09 21:00N 25°39' W 080°16'0 0.0
2017-Oct-09 20:27N 25°39' W 080°16'0 0.0
2017-Oct-09 20:00N 25°39' W 080°16'0 0.0
2017-Oct-09 19:30N 25°39' W 080°16'0 0.0
2017-Oct-09 18:54N 25°39' W 080°16'0 0.0
2017-Oct-09 18:30N 25°39' W 080°16'0 0.0
2017-Oct-09 18:00N 25°39' W 080°16'0 0.0
2017-Oct-09 17:30N 25°39' W 080°16'0 0.0
2017-Oct-09 17:00N 25°39' W 080°16'0 0.0
2017-Oct-09 16:30N 25°39' W 080°16'0 0.0
2017-Oct-09 16:00N 25°39' W 080°16'0 0.0
2017-Oct-09 15:27N 25°39' W 080°16'0 0.0
2017-Oct-09 15:00N 25°39' W 080°16'0 0.0
2017-Oct-09 14:30N 25°39' W 080°16'0 0.0
2017-Oct-09 14:00N 25°39' W 080°16'0 0.0
2017-Oct-09 13:30N 25°39' W 080°16'0 0.0
2017-Oct-09 12:57N 25°39' W 080°16'0 0.0
2017-Oct-09 12:27N 25°39' W 080°16'0 0.0
2017-Oct-09 12:00N 25°39' W 080°16'0 0.0
2017-Oct-09 11:30N 25°39' W 080°16'0 0.0
2017-Oct-09 11:00N 25°39' W 080°16'0 0.0
2017-Oct-09 10:27N 25°39' W 080°16'0 0.0
2017-Oct-09 09:57N 25°39' W 080°16'0 0.0
2017-Oct-09 09:27N 25°39' W 080°16'0 0.0
2017-Oct-09 09:00N 25°39' W 080°16'0 0.0
2017-Oct-09 08:30N 25°39' W 080°16'0 0.0
2017-Oct-09 07:57N 25°39' W 080°16'0 0.0
2017-Oct-09 07:30N 25°39' W 080°16'0 0.0
2017-Oct-09 07:00N 25°39' W 080°16'0 0.0
2017-Oct-09 06:27N 25°39' W 080°16'0 0.0
2017-Oct-09 05:57N 25°39' W 080°16'0 0.0
2017-Oct-09 05:27N 25°39' W 080°16'0 0.0
2017-Oct-09 04:57N 25°39' W 080°16'0 0.0
2017-Oct-09 04:27N 25°39' W 080°16'0 0.0
2017-Oct-09 03:57N 25°39' W 080°16'0 0.0
2017-Oct-09 03:27N 25°39' W 080°16'0 0.0
2017-Oct-09 03:00N 25°39' W 080°16'0 0.0
2017-Oct-09 02:27N 25°39' W 080°16'0 0.0
2017-Oct-09 02:00N 25°39' W 080°16'0 0.0
2017-Oct-09 01:30N 25°39' W 080°16'0 0.0
2017-Oct-09 01:00N 25°39' W 080°16'0 0.0
2017-Oct-09 00:30N 25°39' W 080°16'0 0.0
2017-Oct-08 23:54N 25°39' W 080°16'0 0.0
2017-Oct-08 23:21N 25°39' W 080°16'0 0.0
2017-Oct-08 22:57N 25°39' W 080°16'0 0.0
2017-Oct-08 22:30N 25°39' W 080°16'0 0.0
2017-Oct-08 22:00N 25°39' W 080°16'0 0.0
2017-Oct-08 21:27N 25°39' W 080°16'0 0.0
2017-Oct-08 21:00N 25°39' W 080°16'0 0.0
2017-Oct-08 20:30N 25°39' W 080°16'0 0.0
2017-Oct-08 19:57N 25°39' W 080°16'0 0.0
2017-Oct-08 19:30N 25°39' W 080°16'0 0.0
2017-Oct-08 18:57N 25°39' W 080°16'0 0.0
2017-Oct-08 18:27N 25°39' W 080°16'0 0.0
2017-Oct-08 18:00N 25°39' W 080°16'0 0.0
2017-Oct-08 17:30N 25°39' W 080°16'0 0.0
2017-Oct-08 16:57N 25°39' W 080°16'0 0.0
2017-Oct-08 16:30N 25°39' W 080°16'0 0.0
2017-Oct-08 16:00N 25°39' W 080°16'0 0.0
2017-Oct-08 15:30N 25°39' W 080°16'0 0.0
2017-Oct-08 14:57N 25°39' W 080°16'0 0.0
2017-Oct-08 14:30N 25°39' W 080°16'0 0.0
2017-Oct-08 14:00N 25°39' W 080°16'0 0.0
2017-Oct-08 13:30N 25°39' W 080°16'0 0.0
2017-Oct-08 13:00N 25°39' W 080°16'0 0.0
2017-Oct-08 12:30N 25°39' W 080°16'0 0.0
2017-Oct-08 12:00N 25°39' W 080°16'0 0.0
2017-Oct-08 11:21N 25°39' W 080°16'0 0.0
2017-Oct-08 11:00N 25°39' W 080°16'0 0.0
2017-Oct-08 10:30N 25°39' W 080°16'0 0.0
2017-Oct-08 09:48N 25°39' W 080°16'0 0.0
2017-Oct-08 09:27N 25°39' W 080°16'0 0.0
2017-Oct-08 09:00N 25°39' W 080°16'0 0.0
2017-Oct-08 08:30N 25°39' W 080°16'0 0.0
2017-Oct-08 08:00N 25°39' W 080°16'0 0.0
2017-Oct-08 07:21N 25°39' W 080°16'0 0.0
2017-Oct-08 07:00N 25°39' W 080°16'0 0.0
2017-Oct-08 06:30N 25°39' W 080°16'0 0.0
2017-Oct-08 05:57N 25°39' W 080°16'0 0.0
2017-Oct-08 05:30N 25°39' W 080°16'0 0.0
2017-Oct-08 04:54N 25°39' W 080°16'0 0.0
2017-Oct-08 04:24N 25°39' W 080°16'0 0.0
2017-Oct-08 03:54N 25°39' W 080°16'0 0.0
2017-Oct-08 03:27N 25°39' W 080°16'0 0.0
2017-Oct-08 03:00N 25°39' W 080°16'0 0.0
2017-Oct-08 02:30N 25°39' W 080°16'0 0.0
2017-Oct-08 02:00N 25°39' W 080°16'0 0.0
2017-Oct-08 01:27N 25°39' W 080°16'0 0.0
2017-Oct-08 01:00N 25°39' W 080°16'0 0.0
2017-Oct-08 00:30N 25°39' W 080°16'0 0.0
2017-Oct-08 00:00N 25°39' W 080°16'0 0.0
2017-Oct-07 23:30N 25°39' W 080°16'0 0.0
2017-Oct-07 22:57N 25°39' W 080°16'0 0.0
2017-Oct-07 22:21N 25°39' W 080°16'0 0.0
2017-Oct-07 22:00N 25°39' W 080°16'0 0.0
2017-Oct-07 21:30N 25°39' W 080°16'0 0.0
2017-Oct-07 20:57N 25°39' W 080°16'0 0.0
2017-Oct-07 20:27N 25°39' W 080°16'0 0.0
2017-Oct-07 20:00N 25°39' W 080°16'0 0.0
2017-Oct-07 19:30N 25°39' W 080°16'0 0.0
2017-Oct-07 19:00N 25°39' W 080°16'0 0.0
2017-Oct-07 18:30N 25°39' W 080°16'0 0.0
2017-Oct-07 18:00N 25°39' W 080°16'0 0.0
2017-Oct-07 17:30N 25°39' W 080°16'0 0.0
2017-Oct-07 16:57N 25°39' W 080°16'  
Track history (hours):
 
Tides and Currents Weather Stations Pressure Air Temp Water Temp Dewpoint Dewpoint Depression Visibility Wind Speed Wind Dir Waves Ship Positions

Sneaker

Last reported at 2017-Oct-17 16:55 UTC. Time now 2017-Oct-17 17:06 UTC.
Position N 01°17' E 103°56'.

Length 22 m; draft 2 m.

Type: Pleasure craft. MMSI: 338149728.

Date/timePositionNaut miles runAvg speedWind from/ knotsBaromVisibWave heightAir tempDewpointWater temp
2017-Oct-17 16:55N 01°17' E 103°56'0 0.0
2017-Oct-17 16:24N 01°17' E 103°56'108208266.3
2017-Oct-17 15:06N 26°43' W 080°03'1082050130.3
2017-Oct-17 14:53N 01°17' E 103°56'1082079169.1
2017-Oct-17 14:44N 26°43' W 080°03'0 0.0
2017-Oct-17 14:29N 26°43' W 080°03'10820499374.5
2017-Oct-17 14:28N 01°17' E 103°56'0 0.4
2017-Oct-17 14:00N 01°17' E 103°56'10820649175.4
2017-Oct-17 13:59N 26°43' W 080°03'1082021651.6
2017-Oct-17 13:29N 01°17' E 103°56'108209737791.3
2017-Oct-17 13:29N 26°43' W 080°03'1082020318.6
2017-Oct-17 12:57N 01°17' E 103°56'0 0.1
2017-Oct-17 12:24N 01°17' E 103°56'  
2017-Oct-12 19:45N 26°33' W 080°03'2 5.7
2017-Oct-12 19:26N 26°31' W 080°03'4 5.9
2017-Oct-12 18:48N 26°28' W 080°04'2 4.2
2017-Oct-12 18:25N 26°26' W 080°04'3 5.7
2017-Oct-12 17:52N 26°23' W 080°04'2 5.3
2017-Oct-12 17:28N 26°21' W 080°05'2 5.1
2017-Oct-12 17:00N 26°19' W 080°05'2 4.9
2017-Oct-12 16:30N 26°16' W 080°05'3 4.3
2017-Oct-12 15:55N 26°14' W 080°06'2 6.1
2017-Oct-12 15:30N 26°11' W 080°06'3 6.4
2017-Oct-12 15:00N 26°08' W 080°07'1 2.8
2017-Oct-12 14:30N 26°07' W 080°07'3 6.5
2017-Oct-12 14:00N 26°05' W 080°04'612.4
2017-Oct-12 13:30N 25°59' W 080°04'611.9
2017-Oct-12 13:00N 25°53' W 080°04'919.0
2017-Oct-12 12:30N 25°44' W 080°05'815.1
2017-Oct-12 12:00N 25°39' W 080°12'4 8.4
2017-Oct-12 11:31N 25°39' W 080°16'0 0.1
2017-Oct-12 11:00N 25°39' W 080°16'0 0.0
2017-Oct-12 10:24N 25°39' W 080°16'0 0.0
2017-Oct-12 09:51N 25°39' W 080°16'0 0.0
2017-Oct-12 09:18N 25°39' W 080°16'0 0.0
2017-Oct-12 08:54N 25°39' W 080°16'0 0.0
2017-Oct-12 08:30N 25°39' W 080°16'0 0.0
2017-Oct-12 07:57N 25°39' W 080°16'0 0.0
2017-Oct-12 07:27N 25°39' W 080°16'0 0.0
2017-Oct-12 07:00N 25°39' W 080°16'0 0.0
2017-Oct-12 06:27N 25°39' W 080°16'0 0.0
2017-Oct-12 05:57N 25°39' W 080°16'0 0.0
2017-Oct-12 05:27N 25°39' W 080°16'0 0.0
2017-Oct-12 05:00N 25°39' W 080°16'0 0.0
2017-Oct-12 04:30N 25°39' W 080°16'0 0.0
2017-Oct-12 04:00N 25°39' W 080°16'0 0.0
2017-Oct-12 03:30N 25°39' W 080°16'0 0.0
2017-Oct-12 03:00N 25°39' W 080°16'0 0.0
2017-Oct-12 02:30N 25°39' W 080°16'0 0.0
2017-Oct-12 01:57N 25°39' W 080°16'0 0.0
2017-Oct-12 01:30N 25°39' W 080°16'0 0.0
2017-Oct-12 01:00N 25°39' W 080°16'0 0.0
2017-Oct-12 00:30N 25°39' W 080°16'0 0.0
2017-Oct-12 00:00N 25°39' W 080°16'0 0.0
2017-Oct-11 23:30N 25°39' W 080°16'0 0.0
2017-Oct-11 22:57N 25°39' W 080°16'0 0.0
2017-Oct-11 22:30N 25°39' W 080°16'0 0.0
2017-Oct-11 22:00N 25°39' W 080°16'0 0.0
2017-Oct-11 21:30N 25°39' W 080°16'0 0.0
2017-Oct-11 21:00N 25°39' W 080°16'0 0.0
2017-Oct-11 20:30N 25°39' W 080°16'0 0.0
2017-Oct-11 19:57N 25°39' W 080°16'0 0.0
2017-Oct-11 19:30N 25°39' W 080°16'0 0.0
2017-Oct-11 18:57N 25°39' W 080°16'0 0.0
2017-Oct-11 18:30N 25°39' W 080°16'0 0.0
2017-Oct-11 17:57N 25°39' W 080°16'0 0.0
2017-Oct-11 17:27N 25°39' W 080°16'0 0.0
2017-Oct-11 17:00N 25°39' W 080°16'0 0.0
2017-Oct-11 00:00N 25°39' W 080°16'0 0.0
2017-Oct-10 23:30N 25°39' W 080°16'0 0.0
2017-Oct-10 22:57N 25°39' W 080°16'0 0.0
2017-Oct-10 22:27N 25°39' W 080°16'0 0.0
2017-Oct-10 22:00N 25°39' W 080°16'0 0.0
2017-Oct-10 21:30N 25°39' W 080°16'0 0.0
2017-Oct-10 21:00N 25°39' W 080°16'0 0.0
2017-Oct-10 20:27N 25°39' W 080°16'0 0.0
2017-Oct-10 20:00N 25°39' W 080°16'0 0.0
2017-Oct-10 19:30N 25°39' W 080°16'0 0.0
2017-Oct-10 19:00N 25°39' W 080°16'0 0.0
2017-Oct-10 18:30N 25°39' W 080°16'0 0.0
2017-Oct-10 18:00N 25°39' W 080°16'0 0.0
2017-Oct-10 17:30N 25°39' W 080°16'0 0.0
2017-Oct-10 17:00N 25°39' W 080°16'0 0.0
2017-Oct-10 16:30N 25°39' W 080°16'0 0.0
2017-Oct-10 16:00N 25°39' W 080°16'0 0.0
2017-Oct-10 15:30N 25°39' W 080°16'0 0.0
2017-Oct-10 15:00N 25°39' W 080°16'0 0.0
2017-Oct-10 14:00N 25°39' W 080°16'0 0.0
2017-Oct-10 13:24N 25°39' W 080°16'0 0.0
2017-Oct-10 13:00N 25°39' W 080°16'0 0.0
2017-Oct-10 12:30N 25°39' W 080°16'0 0.0
2017-Oct-10 11:57N 25°39' W 080°16'0 0.0
2017-Oct-10 11:30N 25°39' W 080°16'0 0.0
2017-Oct-10 11:00N 25°39' W 080°16'0 0.0
2017-Oct-10 10:27N 25°39' W 080°16'0 0.0
2017-Oct-10 09:57N 25°39' W 080°16'0 0.0
2017-Oct-10 09:30N 25°39' W 080°16'0 0.0
2017-Oct-10 09:00N 25°39' W 080°16'0 0.0
2017-Oct-10 08:30N 25°39' W 080°16'0 0.0
2017-Oct-10 07:54N 25°39' W 080°16'0 0.0
2017-Oct-10 07:30N 25°39' W 080°16'0 0.0
2017-Oct-10 07:00N 25°39' W 080°16'0 0.0
2017-Oct-10 06:30N 25°39' W 080°16'0 0.0
2017-Oct-10 06:00N 25°39' W 080°16'0 0.0
2017-Oct-10 05:24N 25°39' W 080°16'0 0.0
2017-Oct-10 05:00N 25°39' W 080°16'0 0.0
2017-Oct-10 04:30N 25°39' W 080°16'0 0.0
2017-Oct-10 03:57N 25°39' W 080°16'0 0.0
2017-Oct-10 03:24N 25°39' W 080°16'0 0.0
2017-Oct-10 03:00N 25°39' W 080°16'0 0.0
2017-Oct-10 02:30N 25°39' W 080°16'0 0.0
2017-Oct-10 02:00N 25°39' W 080°16'0 0.0
2017-Oct-10 01:30N 25°39' W 080°16'0 0.0
2017-Oct-10 01:00N 25°39' W 080°16'0 0.0
2017-Oct-10 00:30N 25°39' W 080°16'0 0.0
2017-Oct-09 23:57N 25°39' W 080°16'0 0.0
2017-Oct-09 23:27N 25°39' W 080°16'0 0.0
2017-Oct-09 23:00N 25°39' W 080°16'0 0.0
2017-Oct-09 22:24N 25°39' W 080°16'0 0.0
2017-Oct-09 22:00N 25°39' W 080°16'0 0.0
2017-Oct-09 21:30N 25°39' W 080°16'0 0.0
2017-Oct-09 21:00N 25°39' W 080°16'0 0.0
2017-Oct-09 20:27N 25°39' W 080°16'0 0.0
2017-Oct-09 20:00N 25°39' W 080°16'0 0.0
2017-Oct-09 19:30N 25°39' W 080°16'0 0.0
2017-Oct-09 18:54N 25°39' W 080°16'0 0.0
2017-Oct-09 18:30N 25°39' W 080°16'0 0.0
2017-Oct-09 18:00N 25°39' W 080°16'0 0.0
2017-Oct-09 17:30N 25°39' W 080°16'0 0.0
2017-Oct-09 17:00N 25°39' W 080°16'0 0.0
2017-Oct-09 16:30N 25°39' W 080°16'0 0.0
2017-Oct-09 16:00N 25°39' W 080°16'0 0.0
2017-Oct-09 15:27N 25°39' W 080°16'0 0.0
2017-Oct-09 15:00N 25°39' W 080°16'0 0.0
2017-Oct-09 14:30N 25°39' W 080°16'0 0.0
2017-Oct-09 14:00N 25°39' W 080°16'0 0.0
2017-Oct-09 13:30N 25°39' W 080°16'0 0.0
2017-Oct-09 12:57N 25°39' W 080°16'0 0.0
2017-Oct-09 12:27N 25°39' W 080°16'0 0.0
2017-Oct-09 12:00N 25°39' W 080°16'0 0.0
2017-Oct-09 11:30N 25°39' W 080°16'0 0.0
2017-Oct-09 11:00N 25°39' W 080°16'0 0.0
2017-Oct-09 10:27N 25°39' W 080°16'0 0.0
2017-Oct-09 09:57N 25°39' W 080°16'0 0.0
2017-Oct-09 09:27N 25°39' W 080°16'0 0.0
2017-Oct-09 09:00N 25°39' W 080°16'0 0.0
2017-Oct-09 08:30N 25°39' W 080°16'0 0.0
2017-Oct-09 07:57N 25°39' W 080°16'0 0.0
2017-Oct-09 07:30N 25°39' W 080°16'0 0.0
2017-Oct-09 07:00N 25°39' W 080°16'0 0.0
2017-Oct-09 06:27N 25°39' W 080°16'0 0.0
2017-Oct-09 05:57N 25°39' W 080°16'0 0.0
2017-Oct-09 05:27N 25°39' W 080°16'0 0.0
2017-Oct-09 04:57N 25°39' W 080°16'0 0.0
2017-Oct-09 04:27N 25°39' W 080°16'0 0.0
2017-Oct-09 03:57N 25°39' W 080°16'0 0.0
2017-Oct-09 03:27N 25°39' W 080°16'0 0.0
2017-Oct-09 03:00N 25°39' W 080°16'0 0.0
2017-Oct-09 02:27N 25°39' W 080°16'0 0.0
2017-Oct-09 02:00N 25°39' W 080°16'0 0.0
2017-Oct-09 01:30N 25°39' W 080°16'0 0.0
2017-Oct-09 01:00N 25°39' W 080°16'0 0.0
2017-Oct-09 00:30N 25°39' W 080°16'0 0.0
2017-Oct-08 23:54N 25°39' W 080°16'0 0.0
2017-Oct-08 23:21N 25°39' W 080°16'0 0.0
2017-Oct-08 22:57N 25°39' W 080°16'0 0.0
2017-Oct-08 22:30N 25°39' W 080°16'0 0.0
2017-Oct-08 22:00N 25°39' W 080°16'0 0.0
2017-Oct-08 21:27N 25°39' W 080°16'0 0.0
2017-Oct-08 21:00N 25°39' W 080°16'0 0.0
2017-Oct-08 20:30N 25°39' W 080°16'0 0.0
2017-Oct-08 19:57N 25°39' W 080°16'0 0.0
2017-Oct-08 19:30N 25°39' W 080°16'0 0.0
2017-Oct-08 18:57N 25°39' W 080°16'0 0.0
2017-Oct-08 18:27N 25°39' W 080°16'0 0.0
2017-Oct-08 18:00N 25°39' W 080°16'0 0.0
2017-Oct-08 17:30N 25°39' W 080°16'0 0.0
2017-Oct-08 16:57N 25°39' W 080°16'0 0.0
2017-Oct-08 16:30N 25°39' W 080°16'0 0.0
2017-Oct-08 16:00N 25°39' W 080°16'0 0.0
2017-Oct-08 15:30N 25°39' W 080°16'0 0.0
2017-Oct-08 14:57N 25°39' W 080°16'0 0.0
2017-Oct-08 14:30N 25°39' W 080°16'0 0.0
2017-Oct-08 14:00N 25°39' W 080°16'0 0.0
2017-Oct-08 13:30N 25°39' W 080°16'0 0.0
2017-Oct-08 13:00N 25°39' W 080°16'0 0.0
2017-Oct-08 12:30N 25°39' W 080°16'0 0.0
2017-Oct-08 12:00N 25°39' W 080°16'0 0.0
2017-Oct-08 11:21N 25°39' W 080°16'0 0.0
2017-Oct-08 11:00N 25°39' W 080°16'0 0.0
2017-Oct-08 10:30N 25°39' W 080°16'0 0.0
2017-Oct-08 09:48N 25°39' W 080°16'0 0.0
2017-Oct-08 09:27N 25°39' W 080°16'0 0.0
2017-Oct-08 09:00N 25°39' W 080°16'0 0.0
2017-Oct-08 08:30N 25°39' W 080°16'0 0.0
2017-Oct-08 08:00N 25°39' W 080°16'0 0.0
2017-Oct-08 07:21N 25°39' W 080°16'0 0.0
2017-Oct-08 07:00N 25°39' W 080°16'0 0.0
2017-Oct-08 06:30N 25°39' W 080°16'0 0.0
2017-Oct-08 05:57N 25°39' W 080°16'0 0.0
2017-Oct-08 05:30N 25°39' W 080°16'0 0.0
2017-Oct-08 04:54N 25°39' W 080°16'0 0.0
2017-Oct-08 04:24N 25°39' W 080°16'0 0.0
2017-Oct-08 03:54N 25°39' W 080°16'0 0.0
2017-Oct-08 03:27N 25°39' W 080°16'0 0.0
2017-Oct-08 03:00N 25°39' W 080°16'0 0.0
2017-Oct-08 02:30N 25°39' W 080°16'0 0.0
2017-Oct-08 02:00N 25°39' W 080°16'0 0.0
2017-Oct-08 01:27N 25°39' W 080°16'0 0.0
2017-Oct-08 01:00N 25°39' W 080°16'0 0.0
2017-Oct-08 00:30N 25°39' W 080°16'0 0.0
2017-Oct-08 00:00N 25°39' W 080°16'0 0.0
2017-Oct-07 23:30N 25°39' W 080°16'0 0.0
2017-Oct-07 22:57N 25°39' W 080°16'0 0.0
2017-Oct-07 22:21N 25°39' W 080°16'0 0.0
2017-Oct-07 22:00N 25°39' W 080°16'0 0.0
2017-Oct-07 21:30N 25°39' W 080°16'0 0.0
2017-Oct-07 20:57N 25°39' W 080°16'0 0.0
2017-Oct-07 20:27N 25°39' W 080°16'0 0.0
2017-Oct-07 20:00N 25°39' W 080°16'0 0.0
2017-Oct-07 19:30N 25°39' W 080°16'0 0.0
2017-Oct-07 19:00N 25°39' W 080°16'0 0.0
2017-Oct-07 18:30N 25°39' W 080°16'0 0.0
2017-Oct-07 18:00N 25°39' W 080°16'0 0.0
2017-Oct-07 17:30N 25°39' W 080°16'0 0.0
2017-Oct-07 16:57N 25°39' W 080°16'  

Dump ship's entire track history